FIN5LB EFHK-EYVI
Flight info
| Callsign | FIN5LB |
|---|---|
| Flight time | 0h 56m |
| Altitude | 36000 |
| Route | KOIVU Y123 LARTI DCT DOLAT/N0419F370 DCT IRBEX DCT MURUN |
| Aircraft | A20N/M-SDE2E3FGHIRWXY/LB1 |
Departure
| Time | 2026-04-23 17:13 |
|---|---|
| Airport | Helsinki Vantaa Airport (EFHK) |
Arrival
| Time | 2026-04-23 18:09 |
|---|---|
| Airport | Vilnius International Airport (EYVI) |
| Time | Latitude | Longitude | Altitude | Speed | Heading |
|---|---|---|---|---|---|
| 2026-04-23 16:45 | 60.31673 | 24.97222 | 161 ft | 0 kts | 245° |
| 2026-04-23 16:59 | 60.31674 | 24.97226 | 161 ft | 1 kts | 245° |
| 2026-04-23 16:59 | 60.31679 | 24.97250 | 161 ft | 3 kts | 244° |
| 2026-04-23 16:59 | 60.31688 | 24.97289 | 161 ft | 3 kts | 261° |
| 2026-04-23 17:00 | 60.31686 | 24.97330 | 161 ft | 3 kts | 305° |
| 2026-04-23 17:00 | 60.31670 | 24.97357 | 161 ft | 3 kts | 331° |
| 2026-04-23 17:00 | 60.31654 | 24.97374 | 161 ft | 0 kts | 333° |
| 2026-04-23 17:04 | 60.31670 | 24.97356 | 161 ft | 10 kts | 332° |
| 2026-04-23 17:04 | 60.31758 | 24.97263 | 161 ft | 18 kts | 332° |
| 2026-04-23 17:05 | 60.31881 | 24.97135 | 162 ft | 23 kts | 333° |
| 2026-04-23 17:05 | 60.31975 | 24.97042 | 162 ft | 7 kts | 333° |
| 2026-04-23 17:05 | 60.32013 | 24.97002 | 162 ft | 1 kts | 332° |
| 2026-04-23 17:05 | 60.32014 | 24.97001 | 162 ft | 0 kts | 332° |
| 2026-04-23 17:06 | 60.32017 | 24.96997 | 162 ft | 3 kts | 332° |
| 2026-04-23 17:06 | 60.32062 | 24.96945 | 163 ft | 11 kts | 332° |
| 2026-04-23 17:06 | 60.32150 | 24.96848 | 163 ft | 18 kts | 331° |
| 2026-04-23 17:06 | 60.32242 | 24.96671 | 164 ft | 13 kts | 265° |
| 2026-04-23 17:07 | 60.32220 | 24.96617 | 164 ft | 5 kts | 226° |
| 2026-04-23 17:07 | 60.32173 | 24.96513 | 164 ft | 15 kts | 229° |
| 2026-04-23 17:07 | 60.32085 | 24.96304 | 164 ft | 24 kts | 231° |
| 2026-04-23 17:07 | 60.31972 | 24.96061 | 163 ft | 27 kts | 229° |
| 2026-04-23 17:08 | 60.31839 | 24.95766 | 163 ft | 31 kts | 229° |
| 2026-04-23 17:08 | 60.31715 | 24.95498 | 163 ft | 21 kts | 226° |
| 2026-04-23 17:08 | 60.31611 | 24.95264 | 163 ft | 20 kts | 227° |
| 2026-04-23 17:08 | 60.31512 | 24.95040 | 162 ft | 23 kts | 229° |
| 2026-04-23 17:09 | 60.31400 | 24.94792 | 162 ft | 25 kts | 227° |
| 2026-04-23 17:09 | 60.31279 | 24.94528 | 162 ft | 27 kts | 227° |
| 2026-04-23 17:09 | 60.31153 | 24.94251 | 162 ft | 27 kts | 226° |
| 2026-04-23 17:09 | 60.31066 | 24.94063 | 161 ft | 4 kts | 225° |
| 2026-04-23 17:10 | 60.31036 | 24.93995 | 161 ft | 8 kts | 230° |
| 2026-04-23 17:10 | 60.30990 | 24.93883 | 161 ft | 12 kts | 232° |
| 2026-04-23 17:10 | 60.30986 | 24.93743 | 161 ft | 5 kts | 297° |
| 2026-04-23 17:10 | 60.30995 | 24.93727 | 161 ft | 0 kts | 315° |
| 2026-04-23 17:11 | 60.31032 | 24.93652 | 161 ft | 17 kts | 315° |
| 2026-04-23 17:12 | 60.31172 | 24.93741 | 160 ft | 32 kts | 46° |
| 2026-04-23 17:12 | 60.31465 | 24.94375 | 161 ft | 95 kts | 47° |
| 2026-04-23 17:12 | 60.32032 | 24.95635 | 163 ft | 146 kts | 47° |
| 2026-04-23 17:12 | 60.32755 | 24.97305 | 474 ft | 163 kts | 46° |
| 2026-04-23 17:13 | 60.33498 | 24.99057 | 1162 ft | 167 kts | 45° |
| 2026-04-23 17:13 | 60.34267 | 25.00921 | 1746 ft | 177 kts | 44° |
| 2026-04-23 17:13 | 60.35057 | 25.02902 | 2331 ft | 184 kts | 45° |
| 2026-04-23 17:13 | 60.35848 | 25.04969 | 2946 ft | 187 kts | 46° |
| 2026-04-23 17:14 | 60.36617 | 25.07074 | 3546 ft | 190 kts | 47° |
| 2026-04-23 17:14 | 60.37388 | 25.09276 | 4174 ft | 194 kts | 48° |
| 2026-04-23 17:14 | 60.38300 | 25.11376 | 4678 ft | 209 kts | 44° |
| 2026-04-23 17:14 | 60.38968 | 25.14179 | 5126 ft | 235 kts | 74° |
| 2026-04-23 17:15 | 60.38799 | 25.17702 | 5442 ft | 276 kts | 107° |
| 2026-04-23 17:15 | 60.37643 | 25.20937 | 6409 ft | 294 kts | 135° |
| 2026-04-23 17:15 | 60.35824 | 25.22985 | 7334 ft | 308 kts | 161° |
| 2026-04-23 17:15 | 60.33666 | 25.23431 | 8197 ft | 317 kts | 188° |
| 2026-04-23 17:16 | 60.31571 | 25.22118 | 9117 ft | 317 kts | 215° |
| 2026-04-23 17:16 | 60.29918 | 25.19298 | 10008 ft | 309 kts | 240° |
| 2026-04-23 17:16 | 60.28618 | 25.15726 | 10523 ft | 329 kts | 241° |
| 2026-04-23 17:16 | 60.27017 | 25.12127 | 10877 ft | 360 kts | 229° |
| 2026-04-23 17:17 | 60.24987 | 25.08957 | 11586 ft | 376 kts | 219° |
| 2026-04-23 17:17 | 60.22808 | 25.06283 | 12420 ft | 384 kts | 215° |
| 2026-04-23 17:17 | 60.21253 | 25.04542 | 12976 ft | 388 kts | 214° |
| 2026-04-23 17:17 | 60.18014 | 25.01158 | 14004 ft | 398 kts | 213° |
| 2026-04-23 17:18 | 60.13016 | 24.96044 | 15349 ft | 412 kts | 213° |
| 2026-04-23 17:18 | 60.10449 | 24.93392 | 16031 ft | 418 kts | 213° |
| 2026-04-23 17:18 | 60.07855 | 24.90698 | 16690 ft | 425 kts | 214° |
| 2026-04-23 17:19 | 60.05217 | 24.87955 | 17357 ft | 431 kts | 214° |
| 2026-04-23 17:19 | 60.02526 | 24.85159 | 18016 ft | 438 kts | 214° |
| 2026-04-23 17:19 | 59.99804 | 24.82337 | 18630 ft | 442 kts | 214° |
| 2026-04-23 17:19 | 59.97060 | 24.79500 | 19308 ft | 445 kts | 214° |
| 2026-04-23 17:20 | 59.94295 | 24.76646 | 19932 ft | 449 kts | 214° |
| 2026-04-23 17:20 | 59.88690 | 24.70874 | 21185 ft | 457 kts | 214° |
| 2026-04-23 17:21 | 59.82787 | 24.65729 | 22407 ft | 473 kts | 201° |
| 2026-04-23 17:21 | 59.79566 | 24.64202 | 23000 ft | 481 kts | 193° |
| 2026-04-23 17:21 | 59.72778 | 24.64379 | 24049 ft | 494 kts | 174° |
| 2026-04-23 17:22 | 59.69354 | 24.65148 | 24541 ft | 497 kts | 173° |
| 2026-04-23 17:22 | 59.62426 | 24.66704 | 25503 ft | 504 kts | 174° |
| 2026-04-23 17:23 | 59.55396 | 24.68180 | 26440 ft | 511 kts | 174° |
| 2026-04-23 17:23 | 59.51845 | 24.68906 | 26888 ft | 514 kts | 174° |
| 2026-04-23 17:23 | 59.44692 | 24.70358 | 27757 ft | 521 kts | 174° |
| 2026-04-23 17:24 | 59.41069 | 24.71091 | 28178 ft | 524 kts | 174° |
| 2026-04-23 17:24 | 59.37609 | 24.71790 | 28562 ft | 527 kts | 174° |
| 2026-04-23 17:24 | 59.30316 | 24.73260 | 29324 ft | 533 kts | 173° |
| 2026-04-23 17:25 | 59.22882 | 24.74753 | 30061 ft | 539 kts | 173° |
| 2026-04-23 17:25 | 59.20404 | 24.75250 | 30278 ft | 540 kts | 173° |
| 2026-04-23 17:26 | 59.12891 | 24.76751 | 30838 ft | 545 kts | 173° |
| 2026-04-23 17:26 | 59.05359 | 24.78249 | 30877 ft | 543 kts | 173° |
| 2026-04-23 17:27 | 58.94073 | 24.80483 | 30885 ft | 545 kts | 173° |
| 2026-04-23 17:27 | 58.90304 | 24.81226 | 31234 ft | 546 kts | 173° |
| 2026-04-23 17:27 | 58.86523 | 24.81969 | 31699 ft | 544 kts | 173° |
| 2026-04-23 17:28 | 58.82744 | 24.82711 | 32173 ft | 543 kts | 173° |
| 2026-04-23 17:28 | 58.78991 | 24.83445 | 32619 ft | 542 kts | 173° |
| 2026-04-23 17:28 | 58.75244 | 24.84177 | 33056 ft | 541 kts | 173° |
| 2026-04-23 17:28 | 58.71490 | 24.84908 | 33473 ft | 541 kts | 173° |
| 2026-04-23 17:29 | 58.67740 | 24.85638 | 33891 ft | 540 kts | 173° |
| 2026-04-23 17:29 | 58.64066 | 24.86351 | 34252 ft | 538 kts | 173° |
| 2026-04-23 17:29 | 58.56631 | 24.87790 | 34831 ft | 535 kts | 173° |
| 2026-04-23 17:30 | 58.52934 | 24.88503 | 34875 ft | 533 kts | 173° |
| 2026-04-23 17:30 | 58.41851 | 24.90633 | 34880 ft | 533 kts | 173° |
| 2026-04-23 17:31 | 58.34474 | 24.92042 | 34877 ft | 533 kts | 173° |
| 2026-04-23 17:31 | 58.27083 | 24.93449 | 34876 ft | 533 kts | 173° |
| 2026-04-23 17:32 | 58.19699 | 24.94848 | 34882 ft | 533 kts | 173° |
| 2026-04-23 17:32 | 58.12315 | 24.96242 | 34880 ft | 533 kts | 173° |
| 2026-04-23 17:33 | 58.04985 | 24.97620 | 34876 ft | 532 kts | 173° |
| 2026-04-23 17:33 | 57.97588 | 24.98336 | 34880 ft | 533 kts | 180° |
| 2026-04-23 17:34 | 57.90182 | 24.98196 | 34878 ft | 533 kts | 180° |
| 2026-04-23 17:35 | 57.79038 | 24.98009 | 34887 ft | 532 kts | 180° |
| 2026-04-23 17:35 | 57.67906 | 24.97839 | 34881 ft | 536 kts | 181° |
| 2026-04-23 17:36 | 57.60541 | 24.97722 | 34882 ft | 535 kts | 181° |
| 2026-04-23 17:36 | 57.53046 | 24.97604 | 34880 ft | 535 kts | 181° |
| 2026-04-23 17:37 | 57.45523 | 24.97487 | 34880 ft | 548 kts | 181° |
| 2026-04-23 17:37 | 57.37816 | 24.97368 | 34883 ft | 559 kts | 181° |
| 2026-04-23 17:38 | 57.33910 | 24.97309 | 34882 ft | 562 kts | 181° |
| 2026-04-23 17:38 | 57.30044 | 24.97250 | 34878 ft | 547 kts | 181° |
| 2026-04-23 17:38 | 57.26291 | 24.97195 | 34878 ft | 532 kts | 181° |
| 2026-04-23 17:39 | 57.18898 | 24.97082 | 34878 ft | 536 kts | 181° |
| 2026-04-23 17:39 | 57.11441 | 24.96968 | 34881 ft | 535 kts | 181° |
| 2026-04-23 17:40 | 57.04008 | 24.96856 | 34882 ft | 535 kts | 181° |
| 2026-04-23 17:40 | 56.96609 | 24.96744 | 34884 ft | 535 kts | 181° |
| 2026-04-23 17:41 | 56.89157 | 24.96632 | 34882 ft | 535 kts | 181° |
| 2026-04-23 17:41 | 56.78004 | 24.96466 | 34886 ft | 534 kts | 181° |
| 2026-04-23 17:42 | 56.66847 | 24.96300 | 34884 ft | 534 kts | 181° |
| 2026-04-23 17:43 | 56.59416 | 24.96190 | 34883 ft | 534 kts | 181° |
| 2026-04-23 17:43 | 56.51981 | 24.96081 | 34845 ft | 534 kts | 181° |
| 2026-04-23 17:43 | 56.48260 | 24.96027 | 34625 ft | 535 kts | 181° |
| 2026-04-23 17:44 | 56.44532 | 24.95972 | 34391 ft | 535 kts | 181° |
| 2026-04-23 17:44 | 56.40802 | 24.95918 | 34152 ft | 536 kts | 181° |
| 2026-04-23 17:44 | 56.33380 | 24.95861 | 33648 ft | 537 kts | 180° |
| 2026-04-23 17:45 | 56.29635 | 24.95950 | 33370 ft | 538 kts | 179° |
| 2026-04-23 17:45 | 56.22188 | 24.96164 | 32948 ft | 526 kts | 179° |
| 2026-04-23 17:45 | 56.18567 | 24.96256 | 32499 ft | 519 kts | 179° |
| 2026-04-23 17:46 | 56.11325 | 24.96419 | 31022 ft | 521 kts | 179° |
| 2026-04-23 17:46 | 56.07714 | 24.96497 | 30286 ft | 522 kts | 178° |
| 2026-04-23 17:46 | 56.04062 | 24.96575 | 29486 ft | 522 kts | 178° |
| 2026-04-23 17:47 | 56.00424 | 24.96655 | 28642 ft | 522 kts | 178° |
| 2026-04-23 17:47 | 55.96795 | 24.96734 | 27829 ft | 522 kts | 179° |
| 2026-04-23 17:47 | 55.89593 | 24.96890 | 26269 ft | 519 kts | 179° |
| 2026-04-23 17:48 | 55.85977 | 24.96968 | 25517 ft | 517 kts | 179° |
| 2026-04-23 17:48 | 55.82380 | 24.97045 | 24784 ft | 515 kts | 179° |
| 2026-04-23 17:48 | 55.78808 | 24.97122 | 24069 ft | 512 kts | 179° |
| 2026-04-23 17:48 | 55.75252 | 24.97197 | 23357 ft | 510 kts | 179° |
| 2026-04-23 17:49 | 55.71715 | 24.97273 | 22536 ft | 507 kts | 179° |
| 2026-04-23 17:49 | 55.68215 | 24.97349 | 21731 ft | 503 kts | 179° |
| 2026-04-23 17:49 | 55.64715 | 24.97427 | 20955 ft | 500 kts | 179° |
| 2026-04-23 17:49 | 55.61247 | 24.97502 | 20195 ft | 496 kts | 179° |
| 2026-04-23 17:50 | 55.57804 | 24.97576 | 19455 ft | 492 kts | 180° |
| 2026-04-23 17:50 | 55.51004 | 24.97721 | 18000 ft | 484 kts | 180° |
| 2026-04-23 17:50 | 55.47653 | 24.97791 | 17192 ft | 479 kts | 180° |
| 2026-04-23 17:51 | 55.44335 | 24.97872 | 16403 ft | 475 kts | 179° |
| 2026-04-23 17:51 | 55.41088 | 24.97953 | 15633 ft | 470 kts | 180° |
| 2026-04-23 17:51 | 55.34626 | 24.98111 | 14164 ft | 459 kts | 179° |
| 2026-04-23 17:52 | 55.31444 | 24.98186 | 13418 ft | 454 kts | 179° |
| 2026-04-23 17:52 | 55.25340 | 24.98386 | 11847 ft | 440 kts | 178° |
| 2026-04-23 17:52 | 55.22338 | 24.98667 | 11078 ft | 425 kts | 176° |
| 2026-04-23 17:53 | 55.16596 | 24.99288 | 9580 ft | 403 kts | 176° |
| 2026-04-23 17:53 | 55.13827 | 24.99569 | 8776 ft | 393 kts | 177° |
| 2026-04-23 17:53 | 55.11155 | 24.99830 | 7993 ft | 385 kts | 177° |
| 2026-04-23 17:54 | 55.08516 | 25.00078 | 7359 ft | 373 kts | 177° |
| 2026-04-23 17:54 | 55.05981 | 25.00315 | 6986 ft | 355 kts | 177° |
| 2026-04-23 17:54 | 55.01369 | 25.00744 | 6648 ft | 312 kts | 177° |
| 2026-04-23 17:55 | 54.97170 | 25.01131 | 5944 ft | 301 kts | 177° |
| 2026-04-23 17:55 | 54.95052 | 25.01324 | 5437 ft | 302 kts | 177° |
| 2026-04-23 17:55 | 54.92970 | 25.01515 | 4918 ft | 298 kts | 177° |
| 2026-04-23 17:56 | 54.91100 | 25.01687 | 4436 ft | 294 kts | 177° |
| 2026-04-23 17:56 | 54.87112 | 25.02060 | 3994 ft | 265 kts | 178° |
| 2026-04-23 17:56 | 54.85314 | 25.02225 | 4006 ft | 261 kts | 178° |
| 2026-04-23 17:57 | 54.83500 | 25.02391 | 4001 ft | 260 kts | 178° |
| 2026-04-23 17:57 | 54.81690 | 25.02556 | 4006 ft | 260 kts | 178° |
| 2026-04-23 17:57 | 54.78085 | 25.02887 | 4000 ft | 259 kts | 178° |
| 2026-04-23 17:58 | 54.76276 | 25.03051 | 3996 ft | 260 kts | 178° |
| 2026-04-23 17:58 | 54.74473 | 25.03215 | 3999 ft | 259 kts | 178° |
| 2026-04-23 17:58 | 54.72673 | 25.03379 | 4005 ft | 260 kts | 178° |
| 2026-04-23 17:58 | 54.70872 | 25.03543 | 4002 ft | 261 kts | 178° |
| 2026-04-23 17:59 | 54.69051 | 25.03709 | 4007 ft | 261 kts | 178° |
| 2026-04-23 17:59 | 54.67236 | 25.03875 | 4004 ft | 261 kts | 178° |
| 2026-04-23 17:59 | 54.65427 | 25.04040 | 4005 ft | 261 kts | 178° |
| 2026-04-23 17:59 | 54.63640 | 25.04204 | 3998 ft | 250 kts | 178° |
| 2026-04-23 18:00 | 54.61952 | 25.04361 | 4001 ft | 240 kts | 179° |
| 2026-04-23 18:00 | 54.60274 | 25.04512 | 4002 ft | 241 kts | 179° |
| 2026-04-23 18:00 | 54.58602 | 25.04662 | 3998 ft | 241 kts | 179° |
| 2026-04-23 18:00 | 54.56945 | 25.04811 | 4001 ft | 242 kts | 179° |
| 2026-04-23 18:01 | 54.55263 | 25.04962 | 3836 ft | 242 kts | 179° |
| 2026-04-23 18:01 | 54.53568 | 25.05115 | 3464 ft | 245 kts | 179° |
| 2026-04-23 18:01 | 54.51858 | 25.05268 | 3159 ft | 244 kts | 178° |
| 2026-04-23 18:01 | 54.50205 | 25.05419 | 3021 ft | 230 kts | 178° |
| 2026-04-23 18:02 | 54.49194 | 25.05661 | 3005 ft | 215 kts | 161° |
| 2026-04-23 18:02 | 54.47759 | 25.07782 | 3003 ft | 204 kts | 111° |
| 2026-04-23 18:02 | 54.47186 | 25.09984 | 3002 ft | 201 kts | 103° |
| 2026-04-23 18:02 | 54.46699 | 25.12227 | 2996 ft | 200 kts | 102° |
| 2026-04-23 18:03 | 54.46411 | 25.14503 | 2994 ft | 188 kts | 72° |
| 2026-04-23 18:03 | 54.46937 | 25.16410 | 2999 ft | 172 kts | 40° |
| 2026-04-23 18:03 | 54.47829 | 25.17645 | 2992 ft | 154 kts | 23° |
| 2026-04-23 18:03 | 54.48716 | 25.18417 | 3005 ft | 131 kts | 17° |
| 2026-04-23 18:04 | 54.49483 | 25.18965 | 2987 ft | 108 kts | 14° |
| 2026-04-23 18:04 | 54.50186 | 25.19438 | 2998 ft | 109 kts | 14° |
| 2026-04-23 18:04 | 54.50878 | 25.19917 | 3000 ft | 106 kts | 14° |
| 2026-04-23 18:04 | 54.51568 | 25.20390 | 2960 ft | 107 kts | 14° |
| 2026-04-23 18:05 | 54.52261 | 25.20868 | 2836 ft | 107 kts | 13° |
| 2026-04-23 18:05 | 54.52950 | 25.21344 | 2685 ft | 106 kts | 13° |
| 2026-04-23 18:05 | 54.53636 | 25.21816 | 2548 ft | 106 kts | 13° |
| 2026-04-23 18:05 | 54.54312 | 25.22283 | 2412 ft | 106 kts | 13° |
| 2026-04-23 18:06 | 54.55011 | 25.22764 | 2259 ft | 107 kts | 13° |
| 2026-04-23 18:06 | 54.55708 | 25.23235 | 2119 ft | 110 kts | 14° |
| 2026-04-23 18:06 | 54.56413 | 25.23727 | 1959 ft | 108 kts | 15° |
| 2026-04-23 18:06 | 54.57092 | 25.24239 | 1758 ft | 105 kts | 14° |
| 2026-04-23 18:07 | 54.57786 | 25.24672 | 1591 ft | 108 kts | 13° |
| 2026-04-23 18:07 | 54.58499 | 25.25176 | 1501 ft | 113 kts | 17° |
| 2026-04-23 18:07 | 54.59227 | 25.25686 | 1301 ft | 112 kts | 16° |
| 2026-04-23 18:07 | 54.59956 | 25.26191 | 1130 ft | 114 kts | 14° |
| 2026-04-23 18:08 | 54.60444 | 25.26508 | 1042 ft | 112 kts | 15° |
| 2026-04-23 18:08 | 54.61394 | 25.27169 | 855 ft | 109 kts | 15° |
| 2026-04-23 18:08 | 54.62106 | 25.27683 | 691 ft | 109 kts | 14° |
| 2026-04-23 18:08 | 54.62795 | 25.28145 | 601 ft | 104 kts | 22° |
| 2026-04-23 18:09 | 54.63216 | 25.28442 | 612 ft | 34 kts | 22° |
| 2026-04-23 18:09 | 54.63411 | 25.28530 | 619 ft | 21 kts | 330° |
| 2026-04-23 18:09 | 54.63471 | 25.28418 | 620 ft | 4 kts | 358° |
| 2026-04-23 18:09 | 54.63491 | 25.28408 | 613 ft | 0 kts | 346° |
| 2026-04-23 18:10 | 54.63534 | 25.28390 | 614 ft | 19 kts | 348° |
| 2026-04-23 18:10 | 54.63709 | 25.28325 | 632 ft | 26 kts | 347° |
| 2026-04-23 18:11 | 54.63864 | 25.28266 | 631 ft | 20 kts | 347° |
| 2026-04-23 18:11 | 54.63981 | 25.28221 | 640 ft | 16 kts | 347° |
| 2026-04-23 18:11 | 54.64081 | 25.28177 | 638 ft | 15 kts | 349° |
| 2026-04-23 18:11 | 54.64143 | 25.28167 | 637 ft | 0 kts | 27° |
| 2026-04-23 18:12 | 54.64144 | 25.28167 | 637 ft | 0 kts | 21° |
| 2026-04-23 18:12 | 54.64149 | 25.28161 | 641 ft | 4 kts | 339° |
| 2026-04-23 18:13 | 54.64215 | 25.28121 | 636 ft | 13 kts | 349° |
| 2026-04-23 18:13 | 54.64244 | 25.28119 | 639 ft | 0 kts | 359° |